sensor_id;sensor_type;location;lat;lon;timestamp;P1;durP1;ratioP1;P2;durP2;ratioP2
16308;SDS011;8263;48.880;9.276;2024-02-14T00:01:54;178.43;;;163.88;;
16308;SDS011;8263;48.880;9.276;2024-02-14T00:04:22;179.60;;;164.75;;
16308;SDS011;8263;48.880;9.276;2024-02-14T00:06:49;178.88;;;164.18;;
16308;SDS011;8263;48.880;9.276;2024-02-14T00:09:15;179.40;;;164.80;;
16308;SDS011;8263;48.880;9.276;2024-02-14T00:11:41;178.15;;;163.63;;
16308;SDS011;8263;48.880;9.276;2024-02-14T00:14:09;179.50;;;164.80;;
16308;SDS011;8263;48.880;9.276;2024-02-14T00:16:35;178.98;;;164.38;;
16308;SDS011;8263;48.880;9.276;2024-02-14T00:19:04;177.02;;;162.65;;
16308;SDS011;8263;48.880;9.276;2024-02-14T00:21:31;177.05;;;162.63;;
16308;SDS011;8263;48.880;9.276;2024-02-14T00:23:59;181.07;;;166.18;;
16308;SDS011;8263;48.880;9.276;2024-02-14T00:26:25;180.63;;;165.82;;
16308;SDS011;8263;48.880;9.276;2024-02-14T00:28:52;179.15;;;164.52;;
16308;SDS011;8263;48.880;9.276;2024-02-14T00:31:18;179.93;;;165.20;;
16308;SDS011;8263;48.880;9.276;2024-02-14T00:33:44;179.57;;;164.95;;
16308;SDS011;8263;48.880;9.276;2024-02-14T00:36:11;180.65;;;165.93;;
16308;SDS011;8263;48.880;9.276;2024-02-14T00:38:39;178.30;;;163.80;;
16308;SDS011;8263;48.880;9.276;2024-02-14T00:41:05;181.48;;;166.60;;
16308;SDS011;8263;48.880;9.276;2024-02-14T00:43:32;179.70;;;165.02;;
16308;SDS011;8263;48.880;9.276;2024-02-14T00:45:58;180.05;;;165.40;;
16308;SDS011;8263;48.880;9.276;2024-02-14T00:48:25;180.82;;;166.10;;
16308;SDS011;8263;48.880;9.276;2024-02-14T00:50:51;180.88;;;166.13;;
16308;SDS011;8263;48.880;9.276;2024-02-14T00:53:17;181.57;;;166.70;;
16308;SDS011;8263;48.880;9.276;2024-02-14T00:55:46;183.65;;;168.63;;
16308;SDS011;8263;48.880;9.276;2024-02-14T00:58:12;182.05;;;167.15;;
16308;SDS011;8263;48.880;9.276;2024-02-14T01:00:39;181.25;;;166.40;;
16308;SDS011;8263;48.880;9.276;2024-02-14T01:03:06;182.40;;;167.45;;
16308;SDS011;8263;48.880;9.276;2024-02-14T01:05:32;181.68;;;166.75;;
16308;SDS011;8263;48.880;9.276;2024-02-14T01:07:58;181.00;;;166.00;;
16308;SDS011;8263;48.880;9.276;2024-02-14T01:10:25;179.35;;;164.55;;
16308;SDS011;8263;48.880;9.276;2024-02-14T01:12:53;180.70;;;165.95;;
16308;SDS011;8263;48.880;9.276;2024-02-14T01:15:20;178.82;;;164.27;;
16308;SDS011;8263;48.880;9.276;2024-02-14T01:17:47;179.95;;;165.25;;
16308;SDS011;8263;48.880;9.276;2024-02-14T01:20:13;180.27;;;165.48;;
16308;SDS011;8263;48.880;9.276;2024-02-14T01:22:40;180.55;;;165.80;;
16308;SDS011;8263;48.880;9.276;2024-02-14T01:25:07;182.18;;;167.27;;
16308;SDS011;8263;48.880;9.276;2024-02-14T01:27:35;183.00;;;168.02;;
16308;SDS011;8263;48.880;9.276;2024-02-14T01:30:04;179.52;;;164.85;;
16308;SDS011;8263;48.880;9.276;2024-02-14T01:32:30;178.85;;;164.25;;
16308;SDS011;8263;48.880;9.276;2024-02-14T01:34:57;182.15;;;167.25;;
16308;SDS011;8263;48.880;9.276;2024-02-14T01:37:24;179.82;;;165.13;;
16308;SDS011;8263;48.880;9.276;2024-02-14T01:39:51;182.13;;;167.27;;
16308;SDS011;8263;48.880;9.276;2024-02-14T01:42:17;182.05;;;166.98;;
16308;SDS011;8263;48.880;9.276;2024-02-14T01:44:45;181.18;;;166.40;;
16308;SDS011;8263;48.880;9.276;2024-02-14T01:47:13;182.95;;;167.80;;
16308;SDS011;8263;48.880;9.276;2024-02-14T01:49:39;183.00;;;168.02;;
16308;SDS011;8263;48.880;9.276;2024-02-14T01:52:09;181.27;;;166.50;;
16308;SDS011;8263;48.880;9.276;2024-02-14T01:54:36;182.13;;;167.15;;
16308;SDS011;8263;48.880;9.276;2024-02-14T01:57:02;180.63;;;165.88;;
16308;SDS011;8263;48.880;9.276;2024-02-14T01:59:29;183.25;;;168.27;;
16308;SDS011;8263;48.880;9.276;2024-02-14T02:01:56;182.38;;;167.45;;
16308;SDS011;8263;48.880;9.276;2024-02-14T02:04:24;179.90;;;165.18;;
16308;SDS011;8263;48.880;9.276;2024-02-14T02:06:50;181.15;;;166.38;;
16308;SDS011;8263;48.880;9.276;2024-02-14T02:09:17;180.93;;;166.13;;
16308;SDS011;8263;48.880;9.276;2024-02-14T02:11:45;180.27;;;165.48;;
16308;SDS011;8263;48.880;9.276;2024-02-14T02:14:13;181.13;;;166.32;;
16308;SDS011;8263;48.880;9.276;2024-02-14T02:16:39;180.30;;;165.25;;
16308;SDS011;8263;48.880;9.276;2024-02-14T02:19:06;181.95;;;167.07;;
16308;SDS011;8263;48.880;9.276;2024-02-14T02:21:35;179.18;;;164.57;;
16308;SDS011;8263;48.880;9.276;2024-02-14T02:24:04;180.73;;;165.70;;
16308;SDS011;8263;48.880;9.276;2024-02-14T02:26:30;182.65;;;167.68;;
16308;SDS011;8263;48.880;9.276;2024-02-14T02:28:56;178.82;;;164.15;;
16308;SDS011;8263;48.880;9.276;2024-02-14T02:31:24;180.10;;;165.38;;
16308;SDS011;8263;48.880;9.276;2024-02-14T02:33:51;181.20;;;166.40;;
16308;SDS011;8263;48.880;9.276;2024-02-14T02:36:18;181.55;;;166.70;;
16308;SDS011;8263;48.880;9.276;2024-02-14T02:38:44;181.80;;;166.93;;
16308;SDS011;8263;48.880;9.276;2024-02-14T02:41:12;181.40;;;166.60;;
16308;SDS011;8263;48.880;9.276;2024-02-14T02:43:38;182.82;;;167.77;;
16308;SDS011;8263;48.880;9.276;2024-02-14T02:46:04;180.93;;;166.10;;
16308;SDS011;8263;48.880;9.276;2024-02-14T02:48:33;182.07;;;167.18;;
16308;SDS011;8263;48.880;9.276;2024-02-14T02:50:59;181.23;;;166.45;;
16308;SDS011;8263;48.880;9.276;2024-02-14T02:53:26;179.85;;;165.18;;
16308;SDS011;8263;48.880;9.276;2024-02-14T02:55:52;182.32;;;167.40;;
16308;SDS011;8263;48.880;9.276;2024-02-14T02:58:20;180.48;;;165.65;;
16308;SDS011;8263;48.880;9.276;2024-02-14T03:00:47;180.63;;;165.88;;
16308;SDS011;8263;48.880;9.276;2024-02-14T03:03:15;179.57;;;164.88;;
16308;SDS011;8263;48.880;9.276;2024-02-14T03:05:42;183.77;;;168.73;;
16308;SDS011;8263;48.880;9.276;2024-02-14T03:08:09;181.93;;;167.05;;
16308;SDS011;8263;48.880;9.276;2024-02-14T03:10:38;179.88;;;165.18;;
16308;SDS011;8263;48.880;9.276;2024-02-14T03:13:05;179.18;;;164.57;;
16308;SDS011;8263;48.880;9.276;2024-02-14T03:15:34;183.23;;;168.25;;
16308;SDS011;8263;48.880;9.276;2024-02-14T03:18:01;182.52;;;167.63;;
16308;SDS011;8263;48.880;9.276;2024-02-14T03:20:32;176.60;;;162.20;;
16308;SDS011;8263;48.880;9.276;2024-02-14T03:23:00;182.50;;;167.57;;
16308;SDS011;8263;48.880;9.276;2024-02-14T03:25:26;183.90;;;168.68;;
16308;SDS011;8263;48.880;9.276;2024-02-14T03:27:52;176.95;;;162.52;;
16308;SDS011;8263;48.880;9.276;2024-02-14T03:30:19;178.07;;;163.48;;
16308;SDS011;8263;48.880;9.276;2024-02-14T03:32:48;178.82;;;164.25;;
16308;SDS011;8263;48.880;9.276;2024-02-14T03:35:14;181.40;;;166.57;;
16308;SDS011;8263;48.880;9.276;2024-02-14T03:37:41;182.82;;;167.82;;
16308;SDS011;8263;48.880;9.276;2024-02-14T03:40:09;181.68;;;166.77;;
16308;SDS011;8263;48.880;9.276;2024-02-14T03:42:36;180.73;;;165.90;;
16308;SDS011;8263;48.880;9.276;2024-02-14T03:45:05;182.40;;;167.50;;
16308;SDS011;8263;48.880;9.276;2024-02-14T03:47:32;181.95;;;167.10;;
16308;SDS011;8263;48.880;9.276;2024-02-14T03:50:00;182.27;;;167.30;;
16308;SDS011;8263;48.880;9.276;2024-02-14T03:52:27;181.52;;;166.63;;
16308;SDS011;8263;48.880;9.276;2024-02-14T03:54:55;179.23;;;164.43;;
16308;SDS011;8263;48.880;9.276;2024-02-14T03:57:21;180.98;;;166.18;;
16308;SDS011;8263;48.880;9.276;2024-02-14T03:59:49;180.20;;;165.38;;
16308;SDS011;8263;48.880;9.276;2024-02-14T04:02:17;180.48;;;165.73;;
16308;SDS011;8263;48.880;9.276;2024-02-14T04:04:44;178.85;;;164.23;;
16308;SDS011;8263;48.880;9.276;2024-02-14T04:07:13;180.73;;;165.93;;
16308;SDS011;8263;48.880;9.276;2024-02-14T04:09:39;181.07;;;166.27;;
16308;SDS011;8263;48.880;9.276;2024-02-14T04:12:05;180.35;;;165.60;;
16308;SDS011;8263;48.880;9.276;2024-02-14T04:14:32;181.98;;;167.13;;
16308;SDS011;8263;48.880;9.276;2024-02-14T04:16:58;178.95;;;164.25;;
16308;SDS011;8263;48.880;9.276;2024-02-14T04:19:25;178.98;;;164.25;;
16308;SDS011;8263;48.880;9.276;2024-02-14T04:21:51;181.55;;;166.65;;
16308;SDS011;8263;48.880;9.276;2024-02-14T04:24:19;180.07;;;165.38;;
16308;SDS011;8263;48.880;9.276;2024-02-14T04:26:45;182.20;;;167.20;;
16308;SDS011;8263;48.880;9.276;2024-02-14T04:29:13;180.50;;;165.75;;
16308;SDS011;8263;48.880;9.276;2024-02-14T04:31:39;180.80;;;166.00;;
16308;SDS011;8263;48.880;9.276;2024-02-14T04:34:07;179.82;;;165.07;;
16308;SDS011;8263;48.880;9.276;2024-02-14T04:36:35;180.40;;;165.68;;
16308;SDS011;8263;48.880;9.276;2024-02-14T04:39:01;181.05;;;166.27;;
16308;SDS011;8263;48.880;9.276;2024-02-14T04:41:29;176.52;;;162.13;;
16308;SDS011;8263;48.880;9.276;2024-02-14T04:43:56;179.05;;;164.40;;
16308;SDS011;8263;48.880;9.276;2024-02-14T04:46:22;179.15;;;164.45;;
16308;SDS011;8263;48.880;9.276;2024-02-14T04:48:49;179.80;;;165.13;;
16308;SDS011;8263;48.880;9.276;2024-02-14T04:51:15;180.95;;;166.05;;
16308;SDS011;8263;48.880;9.276;2024-02-14T04:53:42;179.48;;;164.82;;
16308;SDS011;8263;48.880;9.276;2024-02-14T04:56:08;181.15;;;166.35;;
16308;SDS011;8263;48.880;9.276;2024-02-14T04:58:36;178.55;;;164.00;;
16308;SDS011;8263;48.880;9.276;2024-02-14T05:01:02;181.00;;;166.20;;
16308;SDS011;8263;48.880;9.276;2024-02-14T05:03:29;181.32;;;166.45;;
16308;SDS011;8263;48.880;9.276;2024-02-14T05:05:55;177.68;;;163.20;;
16308;SDS011;8263;48.880;9.276;2024-02-14T05:08:23;179.85;;;165.05;;
16308;SDS011;8263;48.880;9.276;2024-02-14T05:10:49;181.18;;;166.35;;
16308;SDS011;8263;48.880;9.276;2024-02-14T05:13:15;179.38;;;164.77;;
16308;SDS011;8263;48.880;9.276;2024-02-14T05:15:43;182.35;;;167.45;;
16308;SDS011;8263;48.880;9.276;2024-02-14T05:18:10;180.70;;;165.73;;
16308;SDS011;8263;48.880;9.276;2024-02-14T05:20:36;181.20;;;166.13;;
16308;SDS011;8263;48.880;9.276;2024-02-14T05:23:03;180.13;;;165.40;;
16308;SDS011;8263;48.880;9.276;2024-02-14T05:25:29;181.07;;;166.20;;
16308;SDS011;8263;48.880;9.276;2024-02-14T05:27:57;183.68;;;168.57;;
16308;SDS011;8263;48.880;9.276;2024-02-14T05:30:24;178.38;;;163.70;;
16308;SDS011;8263;48.880;9.276;2024-02-14T05:32:52;181.32;;;166.52;;
16308;SDS011;8263;48.880;9.276;2024-02-14T05:35:19;182.07;;;166.98;;
16308;SDS011;8263;48.880;9.276;2024-02-14T05:37:45;180.07;;;165.35;;
16308;SDS011;8263;48.880;9.276;2024-02-14T05:40:16;180.60;;;165.88;;
16308;SDS011;8263;48.880;9.276;2024-02-14T05:42:42;180.05;;;165.32;;
16308;SDS011;8263;48.880;9.276;2024-02-14T05:45:09;179.73;;;165.05;;
16308;SDS011;8263;48.880;9.276;2024-02-14T05:47:35;181.63;;;166.68;;
16308;SDS011;8263;48.880;9.276;2024-02-14T05:50:04;181.60;;;166.75;;
16308;SDS011;8263;48.880;9.276;2024-02-14T05:52:31;181.48;;;166.57;;
16308;SDS011;8263;48.880;9.276;2024-02-14T05:54:57;180.07;;;165.30;;
16308;SDS011;8263;48.880;9.276;2024-02-14T05:57:23;179.77;;;165.13;;
16308;SDS011;8263;48.880;9.276;2024-02-14T05:59:50;179.88;;;165.20;;
16308;SDS011;8263;48.880;9.276;2024-02-14T06:02:16;181.18;;;166.27;;
16308;SDS011;8263;48.880;9.276;2024-02-14T06:04:42;180.73;;;165.98;;
16308;SDS011;8263;48.880;9.276;2024-02-14T06:07:10;180.05;;;165.38;;
16308;SDS011;8263;48.880;9.276;2024-02-14T06:09:37;180.88;;;166.10;;
16308;SDS011;8263;48.880;9.276;2024-02-14T06:12:03;180.77;;;165.98;;
16308;SDS011;8263;48.880;9.276;2024-02-14T06:14:30;181.75;;;166.93;;
16308;SDS011;8263;48.880;9.276;2024-02-14T06:16:59;181.68;;;166.88;;
16308;SDS011;8263;48.880;9.276;2024-02-14T06:19:25;180.75;;;165.93;;
16308;SDS011;8263;48.880;9.276;2024-02-14T06:21:51;180.35;;;165.57;;
16308;SDS011;8263;48.880;9.276;2024-02-14T06:24:19;181.13;;;166.32;;
16308;SDS011;8263;48.880;9.276;2024-02-14T06:26:46;181.63;;;166.80;;
16308;SDS011;8263;48.880;9.276;2024-02-14T06:29:12;179.00;;;164.43;;
16308;SDS011;8263;48.880;9.276;2024-02-14T06:31:38;176.95;;;162.57;;
16308;SDS011;8263;48.880;9.276;2024-02-14T06:34:05;179.88;;;165.23;;
16308;SDS011;8263;48.880;9.276;2024-02-14T06:36:33;177.60;;;163.18;;
16308;SDS011;8263;48.880;9.276;2024-02-14T06:38:59;180.18;;;165.50;;
16308;SDS011;8263;48.880;9.276;2024-02-14T06:41:27;179.93;;;165.25;;
16308;SDS011;8263;48.880;9.276;2024-02-14T06:43:54;177.93;;;163.43;;
16308;SDS011;8263;48.880;9.276;2024-02-14T06:46:21;180.80;;;166.05;;
16308;SDS011;8263;48.880;9.276;2024-02-14T06:48:48;178.85;;;164.27;;
16308;SDS011;8263;48.880;9.276;2024-02-14T06:51:14;177.82;;;163.23;;
16308;SDS011;8263;48.880;9.276;2024-02-14T06:53:41;178.35;;;163.82;;
16308;SDS011;8263;48.880;9.276;2024-02-14T06:56:07;178.90;;;164.35;;
16308;SDS011;8263;48.880;9.276;2024-02-14T06:58:35;180.80;;;165.93;;
16308;SDS011;8263;48.880;9.276;2024-02-14T07:01:02;179.77;;;165.10;;
16308;SDS011;8263;48.880;9.276;2024-02-14T07:03:28;178.57;;;164.02;;
16308;SDS011;8263;48.880;9.276;2024-02-14T07:05:54;178.52;;;164.02;;
16308;SDS011;8263;48.880;9.276;2024-02-14T07:08:21;177.77;;;163.35;;
16308;SDS011;8263;48.880;9.276;2024-02-14T07:10:48;179.05;;;164.50;;
16308;SDS011;8263;48.880;9.276;2024-02-14T07:13:14;178.32;;;163.73;;
16308;SDS011;8263;48.880;9.276;2024-02-14T07:15:43;178.43;;;163.88;;
16308;SDS011;8263;48.880;9.276;2024-02-14T07:18:10;178.90;;;164.35;;
16308;SDS011;8263;48.880;9.276;2024-02-14T07:20:37;177.82;;;163.30;;
16308;SDS011;8263;48.880;9.276;2024-02-14T07:23:03;177.15;;;162.77;;
16308;SDS011;8263;48.880;9.276;2024-02-14T07:25:30;180.35;;;165.65;;
16308;SDS011;8263;48.880;9.276;2024-02-14T07:27:57;178.13;;;163.65;;
16308;SDS011;8263;48.880;9.276;2024-02-14T07:30:23;178.25;;;163.75;;
16308;SDS011;8263;48.880;9.276;2024-02-14T07:32:51;177.35;;;162.90;;
16308;SDS011;8263;48.880;9.276;2024-02-14T07:35:17;176.90;;;162.57;;
16308;SDS011;8263;48.880;9.276;2024-02-14T07:37:44;179.18;;;164.50;;
16308;SDS011;8263;48.880;9.276;2024-02-14T07:40:11;178.95;;;164.38;;
16308;SDS011;8263;48.880;9.276;2024-02-14T07:42:38;179.20;;;164.60;;
16308;SDS011;8263;48.880;9.276;2024-02-14T07:45:04;178.57;;;164.05;;
16308;SDS011;8263;48.880;9.276;2024-02-14T07:47:31;175.82;;;161.57;;
16308;SDS011;8263;48.880;9.276;2024-02-14T07:49:59;175.18;;;160.98;;
16308;SDS011;8263;48.880;9.276;2024-02-14T07:52:25;177.07;;;162.60;;
16308;SDS011;8263;48.880;9.276;2024-02-14T07:54:52;175.57;;;161.35;;
16308;SDS011;8263;48.880;9.276;2024-02-14T07:57:19;178.88;;;164.32;;
16308;SDS011;8263;48.880;9.276;2024-02-14T07:59:45;176.23;;;161.90;;
16308;SDS011;8263;48.880;9.276;2024-02-14T08:02:12;177.20;;;162.85;;
16308;SDS011;8263;48.880;9.276;2024-02-14T08:04:38;177.85;;;163.40;;
16308;SDS011;8263;48.880;9.276;2024-02-14T08:07:06;177.43;;;162.95;;
16308;SDS011;8263;48.880;9.276;2024-02-14T08:09:32;176.13;;;161.80;;
16308;SDS011;8263;48.880;9.276;2024-02-14T08:11:59;176.50;;;162.15;;
16308;SDS011;8263;48.880;9.276;2024-02-14T08:14:25;177.93;;;163.43;;
16308;SDS011;8263;48.880;9.276;2024-02-14T08:16:52;177.55;;;163.02;;
16308;SDS011;8263;48.880;9.276;2024-02-14T08:19:18;177.90;;;163.43;;
16308;SDS011;8263;48.880;9.276;2024-02-14T08:21:45;176.40;;;162.05;;
16308;SDS011;8263;48.880;9.276;2024-02-14T08:24:12;174.85;;;160.68;;
16308;SDS011;8263;48.880;9.276;2024-02-14T08:26:39;175.73;;;161.43;;
16308;SDS011;8263;48.880;9.276;2024-02-14T08:29:05;175.73;;;161.43;;
16308;SDS011;8263;48.880;9.276;2024-02-14T08:31:32;175.60;;;161.35;;
16308;SDS011;8263;48.880;9.276;2024-02-14T08:33:58;177.60;;;163.20;;
16308;SDS011;8263;48.880;9.276;2024-02-14T08:36:25;176.65;;;162.32;;
16308;SDS011;8263;48.880;9.276;2024-02-14T08:38:51;178.05;;;163.55;;
16308;SDS011;8263;48.880;9.276;2024-02-14T08:41:19;178.40;;;163.90;;
16308;SDS011;8263;48.880;9.276;2024-02-14T08:43:45;178.82;;;163.75;;
16308;SDS011;8263;48.880;9.276;2024-02-14T08:46:12;175.70;;;161.45;;
16308;SDS011;8263;48.880;9.276;2024-02-14T08:48:38;174.73;;;160.57;;
16308;SDS011;8263;48.880;9.276;2024-02-14T08:51:10;174.50;;;160.18;;
16308;SDS011;8263;48.880;9.276;2024-02-14T08:53:37;174.30;;;160.20;;
16308;SDS011;8263;48.880;9.276;2024-02-14T08:56:04;177.02;;;162.63;;
16308;SDS011;8263;48.880;9.276;2024-02-14T08:58:32;176.32;;;161.95;;
16308;SDS011;8263;48.880;9.276;2024-02-14T09:01:00;175.75;;;161.30;;
16308;SDS011;8263;48.880;9.276;2024-02-14T09:03:26;174.52;;;160.40;;
16308;SDS011;8263;48.880;9.276;2024-02-14T09:05:53;172.02;;;158.18;;
16308;SDS011;8263;48.880;9.276;2024-02-14T09:08:19;174.10;;;160.02;;
16308;SDS011;8263;48.880;9.276;2024-02-14T09:10:46;174.45;;;160.25;;
16308;SDS011;8263;48.880;9.276;2024-02-14T09:13:13;175.60;;;161.38;;
16308;SDS011;8263;48.880;9.276;2024-02-14T09:15:41;175.63;;;161.32;;
16308;SDS011;8263;48.880;9.276;2024-02-14T09:18:07;174.00;;;159.90;;
16308;SDS011;8263;48.880;9.276;2024-02-14T09:20:34;175.98;;;161.48;;
16308;SDS011;8263;48.880;9.276;2024-02-14T09:23:00;172.88;;;158.90;;
16308;SDS011;8263;48.880;9.276;2024-02-14T09:25:27;173.60;;;159.57;;
16308;SDS011;8263;48.880;9.276;2024-02-14T09:27:53;174.23;;;160.15;;
16308;SDS011;8263;48.880;9.276;2024-02-14T09:30:20;171.80;;;157.90;;
16308;SDS011;8263;48.880;9.276;2024-02-14T09:32:48;172.50;;;158.60;;
16308;SDS011;8263;48.880;9.276;2024-02-14T09:35:16;172.73;;;158.82;;
16308;SDS011;8263;48.880;9.276;2024-02-14T09:37:42;171.48;;;157.68;;
16308;SDS011;8263;48.880;9.276;2024-02-14T09:40:09;173.05;;;158.88;;
16308;SDS011;8263;48.880;9.276;2024-02-14T09:42:38;173.10;;;159.05;;
16308;SDS011;8263;48.880;9.276;2024-02-14T09:45:06;172.95;;;159.00;;
16308;SDS011;8263;48.880;9.276;2024-02-14T09:47:33;174.18;;;160.07;;
16308;SDS011;8263;48.880;9.276;2024-02-14T09:50:01;173.00;;;159.05;;
16308;SDS011;8263;48.880;9.276;2024-02-14T09:52:28;172.73;;;158.80;;
16308;SDS011;8263;48.880;9.276;2024-02-14T09:54:54;170.52;;;156.82;;
16308;SDS011;8263;48.880;9.276;2024-02-14T09:57:21;171.65;;;157.85;;
16308;SDS011;8263;48.880;9.276;2024-02-14T09:59:48;171.15;;;157.35;;
16308;SDS011;8263;48.880;9.276;2024-02-14T10:02:15;170.43;;;156.50;;
16308;SDS011;8263;48.880;9.276;2024-02-14T10:04:42;170.05;;;156.40;;
16308;SDS011;8263;48.880;9.276;2024-02-14T10:07:10;172.65;;;158.77;;
16308;SDS011;8263;48.880;9.276;2024-02-14T10:09:40;172.00;;;158.10;;
16308;SDS011;8263;48.880;9.276;2024-02-14T10:12:07;171.32;;;157.55;;
16308;SDS011;8263;48.880;9.276;2024-02-14T10:14:34;172.20;;;158.27;;
16308;SDS011;8263;48.880;9.276;2024-02-14T10:16:59;172.50;;;158.63;;
16308;SDS011;8263;48.880;9.276;2024-02-14T10:19:26;172.00;;;158.10;;
16308;SDS011;8263;48.880;9.276;2024-02-14T10:21:55;169.60;;;156.02;;
16308;SDS011;8263;48.880;9.276;2024-02-14T10:26:52;170.68;;;156.98;;
16308;SDS011;8263;48.880;9.276;2024-02-14T10:29:19;169.10;;;155.60;;
16308;SDS011;8263;48.880;9.276;2024-02-14T10:31:46;170.50;;;156.82;;
16308;SDS011;8263;48.880;9.276;2024-02-14T10:34:13;169.15;;;155.65;;
16308;SDS011;8263;48.880;9.276;2024-02-14T10:36:40;169.65;;;156.13;;
16308;SDS011;8263;48.880;9.276;2024-02-14T10:39:08;170.60;;;156.95;;
16308;SDS011;8263;48.880;9.276;2024-02-14T10:41:35;170.30;;;156.63;;
16308;SDS011;8263;48.880;9.276;2024-02-14T10:44:04;169.90;;;156.27;;
16308;SDS011;8263;48.880;9.276;2024-02-14T10:46:31;169.48;;;155.93;;
16308;SDS011;8263;48.880;9.276;2024-02-14T10:49:01;169.75;;;156.25;;
16308;SDS011;8263;48.880;9.276;2024-02-14T10:51:30;169.65;;;156.05;;
16308;SDS011;8263;48.880;9.276;2024-02-14T10:53:57;169.05;;;155.60;;
16308;SDS011;8263;48.880;9.276;2024-02-14T10:56:24;166.57;;;153.38;;
16308;SDS011;8263;48.880;9.276;2024-02-14T10:58:55;167.95;;;154.65;;
16308;SDS011;8263;48.880;9.276;2024-02-14T11:01:23;168.30;;;154.95;;
16308;SDS011;8263;48.880;9.276;2024-02-14T11:03:51;169.40;;;155.90;;
16308;SDS011;8263;48.880;9.276;2024-02-14T11:06:17;168.68;;;155.27;;
16308;SDS011;8263;48.880;9.276;2024-02-14T11:08:54;167.88;;;154.57;;
16308;SDS011;8263;48.880;9.276;2024-02-14T11:11:21;164.80;;;151.88;;
16308;SDS011;8263;48.880;9.276;2024-02-14T11:13:51;165.73;;;152.70;;
16308;SDS011;8263;48.880;9.276;2024-02-14T11:16:18;166.93;;;153.77;;
16308;SDS011;8263;48.880;9.276;2024-02-14T11:18:46;165.77;;;152.73;;
16308;SDS011;8263;48.880;9.276;2024-02-14T11:21:15;165.07;;;152.15;;
16308;SDS011;8263;48.880;9.276;2024-02-14T11:23:52;166.38;;;153.23;;
16308;SDS011;8263;48.880;9.276;2024-02-14T11:26:18;166.13;;;153.07;;
16308;SDS011;8263;48.880;9.276;2024-02-14T11:28:45;164.20;;;151.38;;
16308;SDS011;8263;48.880;9.276;2024-02-14T11:31:12;164.75;;;151.85;;
16308;SDS011;8263;48.880;9.276;2024-02-14T11:33:42;163.63;;;150.85;;
16308;SDS011;8263;48.880;9.276;2024-02-14T11:36:12;164.27;;;151.38;;
16308;SDS011;8263;48.880;9.276;2024-02-14T11:38:40;165.25;;;152.30;;
16308;SDS011;8263;48.880;9.276;2024-02-14T11:41:06;164.65;;;151.77;;
16308;SDS011;8263;48.880;9.276;2024-02-14T11:43:34;167.05;;;153.93;;
16308;SDS011;8263;48.880;9.276;2024-02-14T11:46:01;165.93;;;152.93;;
16308;SDS011;8263;48.880;9.276;2024-02-14T11:48:30;164.38;;;151.57;;
16308;SDS011;8263;48.880;9.276;2024-02-14T11:50:57;165.27;;;152.35;;
16308;SDS011;8263;48.880;9.276;2024-02-14T11:53:25;166.75;;;153.65;;
16308;SDS011;8263;48.880;9.276;2024-02-14T11:55:53;164.73;;;151.85;;
16308;SDS011;8263;48.880;9.276;2024-02-14T11:58:19;165.38;;;152.45;;
16308;SDS011;8263;48.880;9.276;2024-02-14T12:00:46;164.60;;;151.73;;
16308;SDS011;8263;48.880;9.276;2024-02-14T12:03:15;165.80;;;152.73;;
16308;SDS011;8263;48.880;9.276;2024-02-14T12:05:42;164.65;;;151.73;;
16308;SDS011;8263;48.880;9.276;2024-02-14T12:08:09;165.65;;;152.70;;
16308;SDS011;8263;48.880;9.276;2024-02-14T12:10:37;165.35;;;152.43;;
16308;SDS011;8263;48.880;9.276;2024-02-14T12:13:07;164.80;;;151.93;;
16308;SDS011;8263;48.880;9.276;2024-02-14T12:15:37;166.15;;;153.15;;
16308;SDS011;8263;48.880;9.276;2024-02-14T12:18:03;165.07;;;152.15;;
16308;SDS011;8263;48.880;9.276;2024-02-14T12:20:30;164.20;;;151.40;;
16308;SDS011;8263;48.880;9.276;2024-02-14T12:22:58;164.95;;;152.05;;
16308;SDS011;8263;48.880;9.276;2024-02-14T12:25:24;165.45;;;152.50;;
16308;SDS011;8263;48.880;9.276;2024-02-14T12:27:53;165.02;;;152.13;;
16308;SDS011;8263;48.880;9.276;2024-02-14T12:30:19;165.57;;;152.68;;
16308;SDS011;8263;48.880;9.276;2024-02-14T12:32:57;165.27;;;152.38;;
16308;SDS011;8263;48.880;9.276;2024-02-14T12:35:23;164.60;;;151.63;;
16308;SDS011;8263;48.880;9.276;2024-02-14T12:37:50;163.20;;;150.50;;
16308;SDS011;8263;48.880;9.276;2024-02-14T12:40:16;165.10;;;152.18;;
16308;SDS011;8263;48.880;9.276;2024-02-14T12:42:45;164.13;;;151.35;;
16308;SDS011;8263;48.880;9.276;2024-02-14T12:45:13;164.60;;;151.80;;
16308;SDS011;8263;48.880;9.276;2024-02-14T12:47:39;164.75;;;151.65;;
16308;SDS011;8263;48.880;9.276;2024-02-14T12:50:08;165.75;;;152.82;;
16308;SDS011;8263;48.880;9.276;2024-02-14T12:52:34;163.55;;;150.85;;
16308;SDS011;8263;48.880;9.276;2024-02-14T12:55:01;163.48;;;150.80;;
16308;SDS011;8263;48.880;9.276;2024-02-14T12:57:28;165.48;;;152.50;;
16308;SDS011;8263;48.880;9.276;2024-02-14T12:59:54;163.30;;;150.63;;
16308;SDS011;8263;48.880;9.276;2024-02-14T13:02:22;164.02;;;150.93;;
16308;SDS011;8263;48.880;9.276;2024-02-14T13:04:49;164.15;;;151.35;;
16308;SDS011;8263;48.880;9.276;2024-02-14T13:07:16;165.20;;;152.32;;
16308;SDS011;8263;48.880;9.276;2024-02-14T13:09:42;162.77;;;150.18;;
16308;SDS011;8263;48.880;9.276;2024-02-14T13:12:09;161.68;;;149.20;;
16308;SDS011;8263;48.880;9.276;2024-02-14T13:14:35;161.75;;;149.23;;
16308;SDS011;8263;48.880;9.276;2024-02-14T13:17:02;163.35;;;150.68;;
16308;SDS011;8263;48.880;9.276;2024-02-14T13:19:31;162.32;;;149.80;;
16308;SDS011;8263;48.880;9.276;2024-02-14T13:21:58;163.20;;;150.32;;
16308;SDS011;8263;48.880;9.276;2024-02-14T13:24:24;161.88;;;149.38;;
16308;SDS011;8263;48.880;9.276;2024-02-14T13:26:51;162.90;;;149.80;;
16308;SDS011;8263;48.880;9.276;2024-02-14T13:29:17;162.55;;;150.02;;
16308;SDS011;8263;48.880;9.276;2024-02-14T13:31:44;160.90;;;148.45;;
16308;SDS011;8263;48.880;9.276;2024-02-14T13:34:11;163.55;;;150.88;;
16308;SDS011;8263;48.880;9.276;2024-02-14T13:36:40;163.95;;;151.23;;
16308;SDS011;8263;48.880;9.276;2024-02-14T13:39:07;159.57;;;147.35;;
16308;SDS011;8263;48.880;9.276;2024-02-14T13:41:33;162.00;;;149.50;;
16308;SDS011;8263;48.880;9.276;2024-02-14T13:44:01;161.57;;;149.15;;
16308;SDS011;8263;48.880;9.276;2024-02-14T13:46:27;161.25;;;148.82;;
16308;SDS011;8263;48.880;9.276;2024-02-14T13:48:54;162.18;;;149.68;;
16308;SDS011;8263;48.880;9.276;2024-02-14T13:51:20;161.02;;;148.65;;
16308;SDS011;8263;48.880;9.276;2024-02-14T13:53:48;162.75;;;150.23;;
16308;SDS011;8263;48.880;9.276;2024-02-14T13:56:15;157.55;;;145.52;;
16308;SDS011;8263;48.880;9.276;2024-02-14T13:58:42;163.07;;;150.50;;
16308;SDS011;8263;48.880;9.276;2024-02-14T14:01:09;162.27;;;149.77;;
16308;SDS011;8263;48.880;9.276;2024-02-14T14:03:36;159.88;;;147.57;;
16308;SDS011;8263;48.880;9.276;2024-02-14T14:06:03;162.07;;;149.52;;
16308;SDS011;8263;48.880;9.276;2024-02-14T14:08:30;158.40;;;146.30;;
16308;SDS011;8263;48.880;9.276;2024-02-14T14:10:58;160.70;;;148.38;;